Time;durP1;ratioP1;P1;durP2;ratioP2;P2;SDS_P1;SDS_P2;PMS_P1;PMS_P2;Temp;Humidity;BMP_temperature;BMP_pressure;BME280_temperature;BME280_humidity;BME280_pressure;Samples;Min_cycle;Max_cycle;Signal;HPM_P1;HPM_P2
2021/07/15 00:02:11;;;;;;;1.10;1.10;;;;;;;;;;4954218;28;20212;-91
2021/07/15 00:04:46;;;;;;;1.17;1.08;;;;;;;;;;4955288;28;20578;-91
2021/07/15 00:07:17;;;;;;;1.33;1.23;;;;;;;;;;4935970;29;20707;-90
2021/07/15 00:09:51;;;;;;;1.00;1.00;;;;;;;;;;4936790;29;20312;-91
2021/07/15 00:12:20;;;;;;;1.20;1.10;;;;;;;;;;4936637;29;20569;-90
2021/07/15 00:14:49;;;;;;;1.38;1.27;;;;;;;;;;4936330;29;20186;-90
2021/07/15 00:17:18;;;;;;;1.48;1.38;;;;;;;;;;4936420;29;20194;-91
2021/07/15 00:19:49;;;;;;;1.10;1.10;;;;;;;;;;4935473;29;20257;-90
2021/07/15 00:22:19;;;;;;;1.40;1.30;;;;;;;;;;4934815;29;20178;-90
2021/07/15 00:24:46;;;;;;;1.10;1.10;;;;;;;;;;4935323;29;20202;-89
2021/07/15 00:27:14;;;;;;;1.30;1.20;;;;;;;;;;4935949;29;20229;-89
2021/07/15 00:29:43;;;;;;;1.05;1.05;;;;;;;;;;4936259;29;20597;-90
2021/07/15 00:32:27;;;;;;;1.20;1.10;;;;;;;;;;4936325;29;20400;-90
2021/07/15 00:35:06;;;;;;;1.00;1.00;;;;;;;;;;4936122;29;20637;-91
2021/07/15 00:37:40;;;;;;;1.00;1.00;;;;;;;;;;4936366;29;20215;-90
2021/07/15 00:40:17;;;;;;;0.88;0.88;;;;;;;;;;4936161;29;20220;-90
2021/07/15 00:42:47;;;;;;;1.00;1.00;;;;;;;;;;4936163;29;20648;-90
2021/07/15 00:45:20;;;;;;;0.90;0.90;;;;;;;;;;4936182;29;20574;-91
2021/07/15 00:47:52;;;;;;;0.90;0.90;;;;;;;;;;4936003;29;20210;-91
2021/07/15 00:50:23;;;;;;;1.92;1.05;;;;;;;;;;4936118;29;20229;-91
2021/07/15 00:52:51;;;;;;;1.15;1.08;;;;;;;;;;4936380;29;20201;-91
2021/07/15 00:55:29;;;;;;;0.90;0.90;;;;;;;;;;4936161;29;20216;-91
2021/07/15 00:57:57;;;;;;;1.42;1.33;;;;;;;;;;4935718;29;20204;-91
2021/07/15 01:00:27;;;;;;;0.90;0.90;;;;;;;;;;4935821;29;20240;-91
2021/07/15 01:02:56;;;;;;;0.90;0.90;;;;;;;;;;4935967;29;20206;-91
2021/07/15 01:05:27;;;;;;;0.75;0.75;;;;;;;;;;4935683;29;20288;-90
2021/07/15 01:07:55;;;;;;;0.93;0.93;;;;;;;;;;4953211;29;20239;-90
2021/07/15 01:10:29;;;;;;;0.85;0.85;;;;;;;;;;4954585;28;20220;-91
2021/07/15 01:13:23;;;;;;;0.80;0.80;;;;;;;;;;4955063;29;20208;-90
2021/07/15 01:16:24;;;;;;;1.02;1.02;;;;;;;;;;4954294;28;20694;-91
2021/07/15 01:19:00;;;;;;;1.00;1.00;;;;;;;;;;4954552;28;20211;-90
2021/07/15 01:22:05;;;;;;;0.90;0.90;;;;;;;;;;4954902;29;20817;-90
2021/07/15 01:25:04;;;;;;;1.00;1.00;;;;;;;;;;4953066;28;20207;-91
2021/07/15 01:27:50;;;;;;;0.80;0.80;;;;;;;;;;4954212;29;20676;-90
2021/07/15 01:30:21;;;;;;;1.00;1.00;;;;;;;;;;4954870;28;20225;-91
2021/07/15 01:32:57;;;;;;;1.05;1.05;;;;;;;;;;4954282;29;20805;-90
2021/07/15 01:35:30;;;;;;;0.90;0.90;;;;;;;;;;4954545;28;20581;-90
2021/07/15 01:38:03;;;;;;;1.10;1.00;;;;;;;;;;4957549;28;20995;-91
2021/07/15 01:40:40;;;;;;;1.40;1.30;;;;;;;;;;4974035;28;20229;-90
2021/07/15 01:43:15;;;;;;;0.82;0.82;;;;;;;;;;4966244;28;20544;-91
2021/07/15 01:45:46;;;;;;;1.10;1.10;;;;;;;;;;4960905;28;20640;-91
2021/07/15 01:48:15;;;;;;;0.90;0.90;;;;;;;;;;4954558;29;20295;-91
2021/07/15 01:50:46;;;;;;;0.82;0.82;;;;;;;;;;4954458;28;20607;-91
2021/07/15 01:53:22;;;;;;;0.80;0.80;;;;;;;;;;4954460;29;20219;-91
2021/07/15 01:55:51;;;;;;;0.70;0.70;;;;;;;;;;4954722;29;20202;-91
2021/07/15 01:58:21;;;;;;;1.00;1.00;;;;;;;;;;4954461;29;20307;-91
2021/07/15 02:00:51;;;;;;;0.75;0.75;;;;;;;;;;4954230;28;20229;-90
2021/07/15 02:03:18;;;;;;;0.50;0.50;;;;;;;;;;4954553;29;20284;-91
2021/07/15 02:05:47;;;;;;;1.00;1.00;;;;;;;;;;4953948;29;20316;-91
2021/07/15 02:08:27;;;;;;;0.80;0.80;;;;;;;;;;4953966;28;20585;-90
2021/07/15 02:10:56;;;;;;;0.73;0.73;;;;;;;;;;4954075;28;20217;-90
2021/07/15 02:13:33;;;;;;;0.73;0.73;;;;;;;;;;4954193;29;20182;-91
2021/07/15 02:16:09;;;;;;;1.05;1.05;;;;;;;;;;4954205;29;20967;-90
2021/07/15 02:18:38;;;;;;;1.83;1.73;;;;;;;;;;4954088;29;20300;-91
2021/07/15 02:21:12;;;;;;;1.48;1.42;;;;;;;;;;4954111;28;20244;-91
2021/07/15 02:23:48;;;;;;;2.10;1.30;;;;;;;;;;4954069;29;20268;-91
2021/07/15 02:26:17;;;;;;;1.30;1.20;;;;;;;;;;4954328;28;20295;-91
2021/07/15 02:28:49;;;;;;;0.98;0.98;;;;;;;;;;4957089;29;20669;-90
2021/07/15 02:31:26;;;;;;;2.28;1.30;;;;;;;;;;4957712;29;20207;-91
2021/07/15 02:34:02;;;;;;;1.50;1.40;;;;;;;;;;4958152;29;20702;-91
2021/07/15 02:36:31;;;;;;;1.52;1.42;;;;;;;;;;4957879;29;20220;-91
2021/07/15 02:39:04;;;;;;;1.58;1.48;;;;;;;;;;4957443;28;20189;-91
2021/07/15 02:41:33;;;;;;;1.00;1.00;;;;;;;;;;4957584;29;20252;-90
2021/07/15 02:44:03;;;;;;;1.00;1.00;;;;;;;;;;4957052;29;20564;-90
2021/07/15 02:46:33;;;;;;;0.80;0.80;;;;;;;;;;4957066;29;20219;-91
2021/07/15 02:49:01;;;;;;;0.90;0.90;;;;;;;;;;4956981;28;20232;-90
2021/07/15 02:51:32;;;;;;;2.03;1.27;;;;;;;;;;4957766;28;20190;-91
2021/07/15 02:54:01;;;;;;;1.17;1.17;;;;;;;;;;4957425;28;20189;-91
2021/07/15 02:56:37;;;;;;;0.85;0.85;;;;;;;;;;4957160;29;20197;-90
2021/07/15 02:59:14;;;;;;;1.48;0.93;;;;;;;;;;4957349;28;20208;-90
2021/07/15 03:01:53;;;;;;;1.00;1.00;;;;;;;;;;4957549;29;20636;-91
2021/07/15 03:04:26;;;;;;;0.75;0.75;;;;;;;;;;4957324;28;20215;-90
2021/07/15 03:06:55;;;;;;;1.20;1.20;;;;;;;;;;4938679;29;20229;-90
2021/07/15 03:09:28;;;;;;;1.10;1.10;;;;;;;;;;4957248;28;20229;-92
2021/07/15 03:12:04;;;;;;;0.90;0.90;;;;;;;;;;4957077;29;20674;-91
2021/07/15 03:14:34;;;;;;;2.67;1.13;;;;;;;;;;4957074;29;20197;-90
2021/07/15 03:17:05;;;;;;;1.98;1.10;;;;;;;;;;4957105;29;20209;-92
2021/07/15 03:19:39;;;;;;;1.50;1.40;;;;;;;;;;4956960;28;20257;-91
2021/07/15 03:22:28;;;;;;;1.10;1.10;;;;;;;;;;4957113;29;20192;-91
2021/07/15 03:25:01;;;;;;;1.20;1.20;;;;;;;;;;4957220;29;20208;-91
2021/07/15 03:27:32;;;;;;;1.50;1.40;;;;;;;;;;4956835;29;20205;-91
2021/07/15 03:30:13;;;;;;;1.40;1.30;;;;;;;;;;4957232;28;20308;-91
2021/07/15 03:32:49;;;;;;;2.05;1.00;;;;;;;;;;4956983;29;20185;-91
2021/07/15 03:35:20;;;;;;;1.00;1.00;;;;;;;;;;4937942;29;20833;-92
2021/07/15 03:37:52;;;;;;;1.52;1.48;;;;;;;;;;4937579;29;20206;-90
2021/07/15 03:40:28;;;;;;;1.40;1.30;;;;;;;;;;4937833;29;20232;-91
2021/07/15 03:43:02;;;;;;;1.33;1.33;;;;;;;;;;4937610;29;20186;-90
2021/07/15 03:45:31;;;;;;;1.23;1.10;;;;;;;;;;4937776;29;20224;-92
2021/07/15 03:48:03;;;;;;;1.25;1.20;;;;;;;;;;4937559;29;20293;-91
2021/07/15 03:50:33;;;;;;;1.70;1.60;;;;;;;;;;4937589;29;20390;-92
2021/07/15 03:53:05;;;;;;;1.33;1.20;;;;;;;;;;4937724;29;20186;-91
2021/07/15 03:55:38;;;;;;;1.20;1.10;;;;;;;;;;4938008;29;20289;-91
2021/07/15 03:58:08;;;;;;;1.17;1.17;;;;;;;;;;4937446;29;20297;-91
2021/07/15 04:00:37;;;;;;;2.15;1.20;;;;;;;;;;4937993;29;20885;-90
2021/07/15 04:03:24;;;;;;;1.00;1.00;;;;;;;;;;4937779;29;20190;-90
2021/07/15 04:05:54;;;;;;;1.08;1.05;;;;;;;;;;4937043;29;20324;-90
2021/07/15 04:09:07;;;;;;;0.82;0.82;;;;;;;;;;4937126;29;20293;-90
2021/07/15 04:11:44;;;;;;;1.00;1.00;;;;;;;;;;4937469;29;20188;-91
2021/07/15 04:15:09;;;;;;;0.80;0.80;;;;;;;;;;4937402;29;20182;-90
2021/07/15 04:18:15;;;;;;;1.00;1.00;;;;;;;;;;4931519;29;20635;-91
2021/07/15 04:24:26;;;;;;;0.85;0.85;;;;;;;;;;4948746;29;20192;-91
2021/07/15 04:28:03;;;;;;;0.90;0.90;;;;;;;;;;4956277;29;20200;-92
2021/07/15 04:31:28;;;;;;;1.73;1.63;;;;;;;;;;4956471;28;20233;-92
2021/07/15 04:33:57;;;;;;;0.82;0.82;;;;;;;;;;4955985;29;20203;-91
2021/07/15 04:36:44;;;;;;;0.80;0.73;;;;;;;;;;4956495;29;20691;-91
2021/07/15 04:39:14;;;;;;;0.90;0.90;;;;;;;;;;4956147;28;20232;-91
2021/07/15 04:42:03;;;;;;;1.13;1.13;;;;;;;;;;4955996;29;20201;-91
2021/07/15 04:48:13;;;;;;;1.02;1.02;;;;;;;;;;4955545;29;20200;-91
2021/07/15 04:50:42;;;;;;;1.00;1.00;;;;;;;;;;4954811;28;20232;-92
2021/07/15 04:53:12;;;;;;;1.52;0.93;;;;;;;;;;4955731;29;20269;-91
2021/07/15 04:55:43;;;;;;;1.20;1.20;;;;;;;;;;4958820;29;20200;-91
2021/07/15 04:58:15;;;;;;;0.93;0.93;;;;;;;;;;4955486;29;20197;-90
2021/07/15 05:00:59;;;;;;;0.98;0.98;;;;;;;;;;4955724;28;20217;-91
2021/07/15 05:04:26;;;;;;;1.27;1.17;;;;;;;;;;4955622;29;20201;-91
2021/07/15 05:06:57;;;;;;;1.70;1.60;;;;;;;;;;4955130;29;20240;-91
2021/07/15 05:09:37;;;;;;;1.60;1.50;;;;;;;;;;4955094;28;20225;-91
2021/07/15 05:13:01;;;;;;;1.38;1.33;;;;;;;;;;4955525;29;20183;-91
2021/07/15 05:16:17;;;;;;;1.25;1.23;;;;;;;;;;4955392;29;20675;-90
2021/07/15 05:18:56;;;;;;;1.50;1.40;;;;;;;;;;4955391;29;20181;-91
2021/07/15 05:21:24;;;;;;;1.38;1.27;;;;;;;;;;4955209;29;20211;-89
2021/07/15 05:23:53;;;;;;;1.70;1.60;;;;;;;;;;4955178;29;20201;-90
2021/07/15 05:26:27;;;;;;;1.92;1.60;;;;;;;;;;4955844;29;20220;-90
2021/07/15 05:28:57;;;;;;;1.30;1.30;;;;;;;;;;4954896;28;20209;-91
2021/07/15 05:31:33;;;;;;;1.40;1.30;;;;;;;;;;4955488;29;20641;-90
2021/07/15 05:34:14;;;;;;;1.80;1.70;;;;;;;;;;4936084;29;20273;-90
2021/07/15 05:36:50;;;;;;;1.63;1.52;;;;;;;;;;4936251;29;20204;-90
2021/07/15 05:39:18;;;;;;;1.63;1.55;;;;;;;;;;4937170;29;20217;-91
2021/07/15 05:41:51;;;;;;;1.70;1.60;;;;;;;;;;4937436;29;20567;-91
2021/07/15 05:44:21;;;;;;;1.80;1.70;;;;;;;;;;4938442;29;20295;-90
2021/07/15 05:46:50;;;;;;;2.70;1.85;;;;;;;;;;4938577;29;20214;-90
2021/07/15 05:49:18;;;;;;;2.03;1.88;;;;;;;;;;4937813;29;20245;-90
2021/07/15 05:52:01;;;;;;;1.40;1.30;;;;;;;;;;4950887;29;20645;-90
2021/07/15 05:54:30;;;;;;;2.33;1.92;;;;;;;;;;4954740;29;20181;-90
2021/07/15 05:57:17;;;;;;;2.70;2.50;;;;;;;;;;4954830;29;20633;-90
2021/07/15 05:59:53;;;;;;;1.83;1.73;;;;;;;;;;4935704;29;20603;-91
2021/07/15 06:02:28;;;;;;;2.10;1.92;;;;;;;;;;4937152;29;20207;-90
2021/07/15 06:04:56;;;;;;;2.13;1.65;;;;;;;;;;4953109;29;20283;-90
2021/07/15 06:07:24;;;;;;;1.55;1.45;;;;;;;;;;4959914;29;20253;-90
2021/07/15 06:09:52;;;;;;;5.05;2.25;;;;;;;;;;4958983;28;20225;-89
2021/07/15 06:12:26;;;;;;;2.58;2.30;;;;;;;;;;4958051;28;20588;-91
2021/07/15 06:15:06;;;;;;;3.33;2.10;;;;;;;;;;4958479;29;20268;-91
2021/07/15 06:17:36;;;;;;;2.20;2.00;;;;;;;;;;4958138;28;20260;-90
2021/07/15 06:20:12;;;;;;;2.03;1.90;;;;;;;;;;4958348;29;20240;-90
2021/07/15 06:22:46;;;;;;;1.65;1.55;;;;;;;;;;4958192;29;20208;-90
2021/07/15 06:25:15;;;;;;;1.70;1.60;;;;;;;;;;4958375;29;20267;-90
2021/07/15 06:27:55;;;;;;;2.13;1.92;;;;;;;;;;4958075;29;20621;-90
2021/07/15 06:30:26;;;;;;;1.75;1.63;;;;;;;;;;4957911;28;20245;-90
2021/07/15 06:32:57;;;;;;;1.20;1.20;;;;;;;;;;4958197;29;20193;-90
2021/07/15 06:35:39;;;;;;;1.90;1.80;;;;;;;;;;4957884;29;20656;-90
2021/07/15 06:38:10;;;;;;;1.90;1.80;;;;;;;;;;4957879;29;20735;-90
2021/07/15 06:40:42;;;;;;;1.63;1.52;;;;;;;;;;4958039;29;20319;-90
2021/07/15 06:43:21;;;;;;;1.80;1.70;;;;;;;;;;4957842;29;20211;-91
2021/07/15 06:45:52;;;;;;;1.70;1.60;;;;;;;;;;4957333;29;20719;-90
2021/07/15 06:48:21;;;;;;;1.67;1.58;;;;;;;;;;4938471;29;20259;-90
2021/07/15 06:50:50;;;;;;;1.20;1.10;;;;;;;;;;4938481;29;20222;-89
2021/07/15 06:53:17;;;;;;;1.50;1.40;;;;;;;;;;4938313;29;20216;-90
2021/07/15 06:55:46;;;;;;;1.40;1.30;;;;;;;;;;4938383;29;20213;-90
2021/07/15 06:58:24;;;;;;;1.00;1.00;;;;;;;;;;4951067;29;20205;-90
2021/07/15 07:01:40;;;;;;;1.50;1.40;;;;;;;;;;4957715;28;20228;-90
2021/07/15 07:04:19;;;;;;;0.95;0.95;;;;;;;;;;4957315;29;20181;-90
2021/07/15 07:06:47;;;;;;;1.40;1.30;;;;;;;;;;4957262;29;20232;-90
2021/07/15 07:09:27;;;;;;;1.50;1.40;;;;;;;;;;4957788;28;20235;-91
2021/07/15 07:12:10;;;;;;;1.50;1.40;;;;;;;;;;4957595;29;20185;-90
2021/07/15 07:14:39;;;;;;;2.25;1.40;;;;;;;;;;4956696;28;20207;-90
2021/07/15 07:17:15;;;;;;;1.35;1.25;;;;;;;;;;4957398;29;20268;-89
2021/07/15 07:19:55;;;;;;;1.95;1.33;;;;;;;;;;4957077;28;20228;-91
2021/07/15 07:22:42;;;;;;;1.63;1.52;;;;;;;;;;4957517;29;20224;-92
2021/07/15 07:25:14;;;;;;;1.30;1.30;;;;;;;;;;4958269;29;20718;-93
2021/07/15 07:28:35;;;;;;;1.08;1.08;;;;;;;;;;4959454;29;20212;-92
2021/07/15 07:31:07;;;;;;;1.10;1.10;;;;;;;;;;4956303;28;20232;-93
2021/07/15 07:33:34;;;;;;;1.10;1.10;;;;;;;;;;4959580;29;20761;-92
2021/07/15 07:36:08;;;;;;;1.20;1.20;;;;;;;;;;4957591;29;20282;-91
2021/07/15 07:38:38;;;;;;;1.90;1.10;;;;;;;;;;4960664;29;20201;-93
2021/07/15 07:41:09;;;;;;;1.20;1.10;;;;;;;;;;4959045;28;20249;-93
2021/07/15 07:43:37;;;;;;;3.80;2.25;;;;;;;;;;4957680;29;20217;-93
2021/07/15 07:46:11;;;;;;;1.20;1.10;;;;;;;;;;4957645;29;20198;-93
2021/07/15 07:48:53;;;;;;;1.00;1.00;;;;;;;;;;4958357;29;20264;-92
2021/07/15 07:51:22;;;;;;;1.23;1.13;;;;;;;;;;4956495;28;20224;-92
2021/07/15 07:54:18;;;;;;;1.00;0.90;;;;;;;;;;4957383;29;20640;-92
2021/07/15 07:56:47;;;;;;;0.90;0.90;;;;;;;;;;4957045;29;20190;-92
2021/07/15 07:59:15;;;;;;;3.03;1.02;;;;;;;;;;4956697;28;20221;-92
2021/07/15 08:01:42;;;;;;;0.90;0.90;;;;;;;;;;4956954;29;20205;-90
2021/07/15 08:04:18;;;;;;;0.93;0.93;;;;;;;;;;4956364;29;20292;-91
2021/07/15 08:06:49;;;;;;;0.80;0.80;;;;;;;;;;4956229;29;20291;-91
2021/07/15 08:09:22;;;;;;;0.60;0.60;;;;;;;;;;4956336;28;20217;-92
2021/07/15 08:11:54;;;;;;;0.70;0.70;;;;;;;;;;4956317;29;20730;-91
2021/07/15 08:14:29;;;;;;;0.80;0.80;;;;;;;;;;4956500;29;20295;-91
2021/07/15 08:16:59;;;;;;;0.80;0.80;;;;;;;;;;4956437;29;20211;-91
2021/07/15 08:19:28;;;;;;;0.77;0.77;;;;;;;;;;4955722;28;20217;-91
2021/07/15 08:22:18;;;;;;;0.55;0.55;;;;;;;;;;4948429;28;20197;-91
2021/07/15 08:24:51;;;;;;;0.60;0.60;;;;;;;;;;4955078;28;20205;-91
2021/07/15 08:27:21;;;;;;;0.50;0.50;;;;;;;;;;4956181;29;20284;-90
2021/07/15 08:30:30;;;;;;;0.60;0.60;;;;;;;;;;4956193;28;20229;-91
2021/07/15 08:34:14;;;;;;;0.60;0.60;;;;;;;;;;4955982;29;20205;-91
2021/07/15 08:44:01;;;;;;;0.70;0.70;;;;;;;;;;4787203;30;20726;-93
2021/07/15 09:05:30;;;;;;;0.65;0.65;;;;;;;;;;4785824;30;20789;-90
2021/07/15 09:08:00;;;;;;;0.70;0.70;;;;;;;;;;4820026;29;20241;-90
2021/07/15 09:10:29;;;;;;;0.68;0.57;;;;;;;;;;4869352;29;20227;-90
2021/07/15 09:12:59;;;;;;;0.77;0.77;;;;;;;;;;4933992;29;20204;-88
2021/07/15 09:15:29;;;;;;;0.70;0.70;;;;;;;;;;4935788;29;20705;-90
2021/07/15 09:17:57;;;;;;;0.60;0.60;;;;;;;;;;4935554;29;20190;-89
2021/07/15 09:20:31;;;;;;;0.65;0.65;;;;;;;;;;4935855;29;20245;-90
2021/07/15 09:23:02;;;;;;;0.63;0.63;;;;;;;;;;4935738;29;20225;-90
2021/07/15 09:25:52;;;;;;;0.60;0.60;;;;;;;;;;4926840;29;20277;-88
2021/07/15 09:28:28;;;;;;;0.50;0.50;;;;;;;;;;4916890;29;20221;-89
2021/07/15 09:30:57;;;;;;;0.68;0.68;;;;;;;;;;4936072;29;20228;-90
2021/07/15 09:33:28;;;;;;;0.60;0.60;;;;;;;;;;4954121;29;20201;-91
2021/07/15 09:35:57;;;;;;;0.70;0.70;;;;;;;;;;4916689;29;20238;-90
2021/07/15 09:38:26;;;;;;;0.40;0.40;;;;;;;;;;4917001;29;20574;-89
2021/07/15 09:40:59;;;;;;;0.50;0.50;;;;;;;;;;4923999;29;20265;-88
2021/07/15 09:43:31;;;;;;;0.43;0.43;;;;;;;;;;4936840;29;20194;-90
2021/07/15 09:46:14;;;;;;;0.57;0.57;;;;;;;;;;4935650;29;20193;-90
2021/07/15 09:48:46;;;;;;;0.60;0.60;;;;;;;;;;4928316;29;20190;-90
2021/07/15 09:51:16;;;;;;;0.60;0.60;;;;;;;;;;4947210;29;20236;-90
2021/07/15 09:53:46;;;;;;;0.60;0.60;;;;;;;;;;4954827;29;20201;-89
2021/07/15 09:56:17;;;;;;;0.70;0.70;;;;;;;;;;4954772;29;20186;-90
2021/07/15 09:58:51;;;;;;;0.70;0.70;;;;;;;;;;4954867;29;20189;-90
2021/07/15 10:01:24;;;;;;;0.60;0.60;;;;;;;;;;4954948;29;20629;-90
2021/07/15 10:03:56;;;;;;;0.80;0.80;;;;;;;;;;4947766;29;20194;-90
2021/07/15 10:06:23;;;;;;;0.90;0.90;;;;;;;;;;4935340;29;20236;-89
2021/07/15 10:08:54;;;;;;;0.73;0.73;;;;;;;;;;4920710;29;20191;-91
2021/07/15 10:11:44;;;;;;;0.98;0.98;;;;;;;;;;4923776;29;20218;-90
2021/07/15 10:14:17;;;;;;;0.73;0.73;;;;;;;;;;4935039;29;20220;-90
2021/07/15 10:16:48;;;;;;;0.70;0.70;;;;;;;;;;4935376;29;20582;-91
2021/07/15 10:19:20;;;;;;;0.80;0.80;;;;;;;;;;4935486;29;20254;-89
2021/07/15 10:21:58;;;;;;;0.70;0.70;;;;;;;;;;4951509;29;20193;-90
2021/07/15 10:24:26;;;;;;;0.80;0.80;;;;;;;;;;4948295;29;20201;-91
2021/07/15 10:26:58;;;;;;;0.80;0.80;;;;;;;;;;4935389;29;20849;-90
2021/07/15 10:29:27;;;;;;;0.85;0.85;;;;;;;;;;4934442;29;20740;-90
2021/07/15 10:32:07;;;;;;;0.60;0.60;;;;;;;;;;4934955;29;20232;-91
2021/07/15 10:34:35;;;;;;;0.70;0.70;;;;;;;;;;4935468;29;20205;-91
2021/07/15 10:37:03;;;;;;;0.40;0.40;;;;;;;;;;4935157;29;20189;-91
2021/07/15 10:39:31;;;;;;;0.60;0.60;;;;;;;;;;4934524;29;20222;-89
2021/07/15 10:42:19;;;;;;;0.40;0.40;;;;;;;;;;4952800;29;20204;-89
2021/07/15 10:44:48;;;;;;;0.60;0.60;;;;;;;;;;4947341;29;20297;-91
2021/07/15 10:47:17;;;;;;;0.50;0.50;;;;;;;;;;4953982;28;20201;-91
2021/07/15 10:49:46;;;;;;;0.68;0.68;;;;;;;;;;4938605;29;20223;-90
2021/07/15 10:52:19;;;;;;;0.57;0.57;;;;;;;;;;4938262;29;20228;-90
2021/07/15 10:54:48;;;;;;;0.73;0.73;;;;;;;;;;4938378;29;20584;-91
2021/07/15 10:57:19;;;;;;;0.60;0.60;;;;;;;;;;4938537;29;20647;-90
2021/07/15 10:59:46;;;;;;;0.77;0.77;;;;;;;;;;4937939;29;20675;-90
2021/07/15 11:02:22;;;;;;;0.50;0.50;;;;;;;;;;4957746;28;20208;-91
2021/07/15 11:04:51;;;;;;;1.45;1.00;;;;;;;;;;4951508;29;20815;-90
2021/07/15 11:07:22;;;;;;;0.70;0.70;;;;;;;;;;4948262;29;20200;-90
2021/07/15 11:09:54;;;;;;;0.60;0.60;;;;;;;;;;4948303;29;20220;-91
2021/07/15 11:12:36;;;;;;;0.60;0.60;;;;;;;;;;4956414;29;20270;-91
2021/07/15 11:15:11;;;;;;;0.60;0.60;;;;;;;;;;4938439;29;20202;-91
2021/07/15 11:17:47;;;;;;;0.50;0.50;;;;;;;;;;4938871;29;20633;-90
2021/07/15 11:20:19;;;;;;;0.80;0.80;;;;;;;;;;4957672;28;20587;-89
2021/07/15 11:22:53;;;;;;;0.70;0.70;;;;;;;;;;4957406;29;20204;-89
2021/07/15 11:25:41;;;;;;;1.45;0.65;;;;;;;;;;4957931;29;20259;-91
2021/07/15 11:28:24;;;;;;;0.70;0.70;;;;;;;;;;4953679;29;20216;-92
2021/07/15 11:30:55;;;;;;;0.60;0.60;;;;;;;;;;4950220;28;20225;-92
2021/07/15 11:33:35;;;;;;;0.60;0.60;;;;;;;;;;4938708;29;20232;-91
2021/07/15 11:36:09;;;;;;;0.50;0.50;;;;;;;;;;4939518;29;20228;-90
2021/07/15 11:38:39;;;;;;;0.70;0.70;;;;;;;;;;4940571;29;20229;-90
2021/07/15 11:41:09;;;;;;;0.63;0.63;;;;;;;;;;4960220;28;20232;-91
2021/07/15 11:43:50;;;;;;;0.60;0.60;;;;;;;;;;4975630;28;20291;-91
2021/07/15 11:46:21;;;;;;;0.60;0.60;;;;;;;;;;4959979;28;20209;-91
2021/07/15 11:49:07;;;;;;;0.70;0.70;;;;;;;;;;4956805;29;20193;-89
2021/07/15 11:51:45;;;;;;;2.10;0.60;;;;;;;;;;4963811;28;20235;-90
2021/07/15 11:54:29;;;;;;;0.80;0.80;;;;;;;;;;4973810;28;20685;-90
2021/07/15 11:57:00;;;;;;;1.15;0.70;;;;;;;;;;4969883;28;20204;-91
2021/07/15 11:59:49;;;;;;;0.55;0.55;;;;;;;;;;4954526;28;20548;-91
2021/07/15 12:02:37;;;;;;;0.68;0.68;;;;;;;;;;4931370;29;20229;-90
2021/07/15 12:05:20;;;;;;;0.65;0.65;;;;;;;;;;4937360;29;20216;-91
2021/07/15 12:08:04;;;;;;;0.60;0.60;;;;;;;;;;4954822;29;20538;-89
2021/07/15 12:10:36;;;;;;;0.75;0.75;;;;;;;;;;4948420;28;20217;-90
2021/07/15 12:13:05;;;;;;;0.70;0.70;;;;;;;;;;4935112;29;20234;-89
2021/07/15 12:15:34;;;;;;;0.60;0.60;;;;;;;;;;4935454;29;20236;-90
2021/07/15 12:18:08;;;;;;;0.50;0.50;;;;;;;;;;4936481;29;20224;-90
2021/07/15 12:20:40;;;;;;;1.38;0.80;;;;;;;;;;4943169;29;20244;-91
2021/07/15 12:23:14;;;;;;;0.70;0.70;;;;;;;;;;4967496;28;20251;-91
2021/07/15 12:25:44;;;;;;;0.70;0.70;;;;;;;;;;4973857;28;20192;-92
2021/07/15 12:28:18;;;;;;;1.00;0.80;;;;;;;;;;4974527;28;20625;-91
2021/07/15 12:30:50;;;;;;;0.65;0.63;;;;;;;;;;4967120;28;20300;-91
2021/07/15 12:33:25;;;;;;;0.77;0.77;;;;;;;;;;4956580;29;20337;-90
2021/07/15 12:35:54;;;;;;;0.65;0.65;;;;;;;;;;4953089;29;20196;-91
2021/07/15 12:38:26;;;;;;;0.70;0.70;;;;;;;;;;4956433;29;20228;-92
2021/07/15 12:41:12;;;;;;;0.65;0.65;;;;;;;;;;4955887;28;20233;-91
2021/07/15 12:43:49;;;;;;;0.55;0.55;;;;;;;;;;4954696;29;20227;-90
2021/07/15 12:46:19;;;;;;;0.60;0.60;;;;;;;;;;4955609;29;20227;-90
2021/07/15 12:48:51;;;;;;;0.50;0.50;;;;;;;;;;4960619;29;20205;-92
2021/07/15 12:51:23;;;;;;;0.63;0.63;;;;;;;;;;4956292;29;20228;-89
2021/07/15 12:53:52;;;;;;;0.63;0.63;;;;;;;;;;4954029;29;20209;-91
2021/07/15 12:56:23;;;;;;;0.60;0.60;;;;;;;;;;4953984;29;20209;-91
2021/07/15 12:59:04;;;;;;;0.60;0.60;;;;;;;;;;4955459;28;20236;-91
2021/07/15 13:01:31;;;;;;;0.60;0.60;;;;;;;;;;4962978;28;20654;-91
2021/07/15 13:04:10;;;;;;;0.60;0.60;;;;;;;;;;4975507;28;20203;-91
2021/07/15 13:06:43;;;;;;;0.60;0.60;;;;;;;;;;4975865;28;20219;-92
2021/07/15 13:09:25;;;;;;;0.80;0.80;;;;;;;;;;4975389;28;20232;-92
2021/07/15 13:14:48;;;;;;;0.50;0.50;;;;;;;;;;4967464;28;20233;-92
2021/07/15 13:17:17;;;;;;;0.70;0.70;;;;;;;;;;4959587;29;20212;-92
2021/07/15 13:19:47;;;;;;;0.70;0.70;;;;;;;;;;4960314;28;20292;-92
2021/07/15 13:22:19;;;;;;;0.70;0.70;;;;;;;;;;4959772;29;20220;-92
2021/07/15 13:24:59;;;;;;;0.80;0.80;;;;;;;;;;4957737;29;20208;-93
2021/07/15 13:27:33;;;;;;;0.70;0.70;;;;;;;;;;4957709;29;20209;-93
2021/07/15 13:30:06;;;;;;;0.80;0.80;;;;;;;;;;4957661;28;20260;-92
2021/07/15 13:32:35;;;;;;;0.63;0.63;;;;;;;;;;4972509;28;20562;-93
2021/07/15 13:35:03;;;;;;;0.80;0.80;;;;;;;;;;4976252;28;20224;-92
2021/07/15 13:37:34;;;;;;;1.00;0.80;;;;;;;;;;4979925;28;20203;-93
2021/07/15 13:40:14;;;;;;;0.60;0.60;;;;;;;;;;4973671;28;20224;-92
2021/07/15 13:42:43;;;;;;;0.80;0.80;;;;;;;;;;4980882;28;20188;-93
2021/07/15 13:45:22;;;;;;;0.73;0.73;;;;;;;;;;4975214;28;20208;-93
2021/07/15 13:47:50;;;;;;;0.73;0.73;;;;;;;;;;4973800;28;20212;-92
2021/07/15 13:50:21;;;;;;;1.60;0.80;;;;;;;;;;4969290;28;20544;-91
2021/07/15 13:52:53;;;;;;;1.08;1.00;;;;;;;;;;4953169;29;20223;-90
2021/07/15 13:55:21;;;;;;;0.70;0.70;;;;;;;;;;4957189;29;20719;-93
2021/07/15 13:57:52;;;;;;;0.80;0.80;;;;;;;;;;4957683;29;20209;-92
2021/07/15 14:00:26;;;;;;;0.52;0.52;;;;;;;;;;4950211;28;20239;-92
2021/07/15 14:02:58;;;;;;;0.75;0.75;;;;;;;;;;4952821;29;20215;-92
2021/07/15 14:05:29;;;;;;;0.80;0.80;;;;;;;;;;4952235;29;20316;-92
2021/07/15 14:07:59;;;;;;;5.60;0.90;;;;;;;;;;4954282;29;20209;-91
2021/07/15 14:10:28;;;;;;;1.00;1.00;;;;;;;;;;4945992;28;20256;-92
2021/07/15 14:12:56;;;;;;;0.80;0.80;;;;;;;;;;4935064;29;20205;-92
2021/07/15 14:15:26;;;;;;;0.82;0.82;;;;;;;;;;4935589;29;20235;-92
2021/07/15 14:18:02;;;;;;;0.63;0.63;;;;;;;;;;4941625;29;20231;-93
2021/07/15 14:20:30;;;;;;;0.70;0.70;;;;;;;;;;4941272;29;20216;-93
2021/07/15 14:23:01;;;;;;;0.70;0.70;;;;;;;;;;4950596;28;20273;-92
2021/07/15 14:25:30;;;;;;;0.60;0.60;;;;;;;;;;4941267;29;20217;-92
2021/07/15 14:28:00;;;;;;;0.82;0.82;;;;;;;;;;4946712;29;20217;-93
2021/07/15 14:30:30;;;;;;;0.70;0.70;;;;;;;;;;4944827;29;20595;-93
2021/07/15 14:33:00;;;;;;;0.70;0.70;;;;;;;;;;4959327;29;20200;-91
2021/07/15 14:35:30;;;;;;;0.80;0.80;;;;;;;;;;4960500;29;20217;-92
2021/07/15 14:38:01;;;;;;;0.63;0.63;;;;;;;;;;4966157;29;20216;-92
2021/07/15 14:40:29;;;;;;;1.40;0.70;;;;;;;;;;4951899;28;20720;-91
2021/07/15 14:42:57;;;;;;;0.82;0.82;;;;;;;;;;4938101;29;20209;-92
2021/07/15 14:45:25;;;;;;;0.70;0.70;;;;;;;;;;4938726;29;20297;-92
2021/07/15 14:47:54;;;;;;;0.70;0.70;;;;;;;;;;4944909;29;20269;-93
2021/07/15 14:50:24;;;;;;;0.80;0.80;;;;;;;;;;4946914;29;20264;-91
2021/07/15 14:52:54;;;;;;;0.57;0.57;;;;;;;;;;4938671;29;20723;-91
2021/07/15 14:55:24;;;;;;;0.70;0.70;;;;;;;;;;4938610;29;20209;-89
2021/07/15 14:57:54;;;;;;;0.73;0.73;;;;;;;;;;4941997;29;20206;-91
2021/07/15 15:00:26;;;;;;;0.60;0.60;;;;;;;;;;4953134;28;20332;-93
2021/07/15 15:02:55;;;;;;;0.60;0.60;;;;;;;;;;4958099;29;20256;-92
2021/07/15 15:05:24;;;;;;;0.63;0.63;;;;;;;;;;4943921;29;20257;-91
2021/07/15 15:07:53;;;;;;;0.80;0.80;;;;;;;;;;4957327;29;20208;-91
2021/07/15 15:10:23;;;;;;;0.55;0.55;;;;;;;;;;4962133;28;20229;-91
2021/07/15 15:12:50;;;;;;;0.60;0.60;;;;;;;;;;4967410;29;20205;-92
2021/07/15 15:15:18;;;;;;;0.63;0.63;;;;;;;;;;4963631;29;20268;-92
2021/07/15 15:17:46;;;;;;;0.60;0.60;;;;;;;;;;4962436;29;20256;-93
2021/07/15 15:20:16;;;;;;;0.90;0.90;;;;;;;;;;4957559;29;20309;-93
2021/07/15 15:22:47;;;;;;;0.70;0.70;;;;;;;;;;4949164;29;20193;-93
2021/07/15 15:25:16;;;;;;;0.70;0.70;;;;;;;;;;4967361;28;20209;-93
2021/07/15 15:28:42;;;;;;;0.93;0.65;;;;;;;;;;4962136;29;20296;-93
2021/07/15 15:44:46;;;;;;;0.80;0.80;;;;;;;;;;4953236;29;21191;-90
2021/07/15 15:47:15;;;;;;;0.70;0.70;;;;;;;;;;4931563;29;20190;-91
2021/07/15 15:49:45;;;;;;;0.60;0.60;;;;;;;;;;4931273;29;20222;-91
2021/07/15 15:52:16;;;;;;;0.70;0.70;;;;;;;;;;4966184;28;20227;-91
2021/07/15 15:54:45;;;;;;;0.80;0.80;;;;;;;;;;4966663;28;20245;-92
2021/07/15 15:57:13;;;;;;;0.68;0.68;;;;;;;;;;4968192;29;20273;-91
2021/07/15 15:59:40;;;;;;;0.80;0.80;;;;;;;;;;4970657;28;20252;-92
2021/07/15 16:02:08;;;;;;;0.80;0.80;;;;;;;;;;4949800;29;20201;-91
2021/07/15 16:04:40;;;;;;;0.88;0.88;;;;;;;;;;4957683;29;20921;-91
2021/07/15 16:07:07;;;;;;;0.70;0.70;;;;;;;;;;4969420;29;20190;-89
2021/07/15 16:09:35;;;;;;;3.65;0.70;;;;;;;;;;4947567;29;20250;-92
2021/07/15 16:12:03;;;;;;;3.15;1.33;;;;;;;;;;4969629;28;20213;-92
2021/07/15 16:14:31;;;;;;;1.00;1.00;;;;;;;;;;4970667;29;20209;-91
2021/07/15 16:16:59;;;;;;;0.90;0.90;;;;;;;;;;4969886;29;20238;-92
2021/07/15 16:19:27;;;;;;;1.00;1.00;;;;;;;;;;4970096;28;20288;-92